KAOH

Lima Allen County Airport

Lima, Ohio, USA
METAR KAOH 191953Z AUTO VRB06KT 10SM SCT018 SCT030 BKN090 26/23 A2994 RMK AO2 LTG DSNT SW SLP129 T02610228
Observed Flight Rules
Jun-19 @ 19:53 UTC (25 minutes ago) Visual Flight Rules
Wind Visibility Clouds
Variable at 6 knots 10 miles
  • Scattered at 1,800' AGL
  • Scattered at 3,000' AGL
  • Broken at 9,000' AGL
Temperatures Readings
Current 26°C / 79°F
Dewpoint 23°C / 73°F
Humidity 84%
Altimeter 29.94" Hg
Pressure 1012.9 hPa
Elevation 296
METAR KAOH 191953Z AUTO VRB06KT 10SM SCT018 SCT030 BKN090 26/23 A2994 RMK AO2 LTG DSNT SW SLP129 T02610228
Observed Flight Rules
Jun-19 @ 19:53 UTC
(25 minutes ago)
VFR
Wind Visibility
Variable at 6 knots 10 miles
Clouds
  • Scattered at 1,800' AGL
  • Scattered at 3,000' AGL
  • Broken at 9,000' AGL
Temperature Dewpoint
26°C / 79°F 23°C / 73°F
Humidity Altimeter Pressure
84% 29.94" Hg 1012.9 hPa